createdAt,value
2022-10-02T00:02:20.634Z,11.59
2022-10-02T00:08:24.765Z,11.62
2022-10-02T00:10:57.965Z,11.60
2022-10-02T00:35:39.198Z,11.57
2022-10-02T00:38:23.126Z,11.52
2022-10-02T00:45:09.074Z,11.47
2022-10-02T00:49:08.023Z,11.45
2022-10-02T00:52:23.264Z,11.42
2022-10-02T00:56:05.088Z,11.39
2022-10-02T01:06:35.007Z,11.25
2022-10-02T01:10:23.324Z,11.22
2022-10-02T01:13:24.850Z,11.20
2022-10-02T01:31:16.880Z,11.05
2022-10-02T01:33:48.607Z,11.06
2022-10-02T01:36:19.006Z,11.02
2022-10-02T01:39:39.074Z,11.04
2022-10-02T01:54:05.754Z,10.89
2022-10-02T02:03:51.808Z,10.78
2022-10-02T02:45:15.363Z,10.54
2022-10-02T02:47:50.109Z,10.51
2022-10-02T02:51:04.881Z,10.53
2022-10-02T03:19:20.140Z,10.44
2022-10-02T03:22:56.809Z,10.39
2022-10-02T03:26:29.954Z,10.32
2022-10-02T03:29:53.147Z,10.31
2022-10-02T03:32:31.897Z,10.26
2022-10-02T03:35:04.711Z,10.23
2022-10-02T03:37:41.164Z,10.17
2022-10-02T03:40:10.527Z,10.16
2022-10-02T03:42:40.250Z,10.11
2022-10-02T03:45:19.607Z,10.08
2022-10-02T03:48:00.523Z,10.05
2022-10-02T03:50:31.760Z,10.03
2022-10-02T03:53:08.523Z,10.02
2022-10-02T03:55:41.339Z,9.95
2022-10-02T03:58:14.749Z,9.92
2022-10-02T04:00:54.145Z,9.90
2022-10-02T04:03:28.291Z,9.85
2022-10-02T04:06:03.606Z,9.83
2022-10-02T04:08:37.879Z,9.87
2022-10-02T04:11:13.987Z,9.83
2022-10-02T04:13:48.528Z,9.83
2022-10-02T04:16:25.531Z,9.79
2022-10-02T04:18:57.827Z,9.79
2022-10-02T04:21:34.693Z,9.81
2022-10-02T04:24:11.430Z,9.84
2022-10-02T04:26:45.657Z,9.89
2022-10-02T04:29:20.514Z,9.91
2022-10-02T04:31:56.246Z,9.92
2022-10-02T04:34:24.784Z,9.93
2022-10-02T04:37:12.456Z,9.98
2022-10-02T04:39:54.883Z,10.01
2022-10-02T04:42:35.470Z,10.08
2022-10-02T04:45:30.812Z,10.09
2022-10-02T04:48:37.579Z,10.08
2022-10-02T04:51:21.400Z,10.10
2022-10-02T04:54:10.017Z,10.12
2022-10-02T04:57:00.946Z,10.13
2022-10-02T04:59:48.303Z,10.11
2022-10-02T05:02:33.076Z,10.15
2022-10-02T05:05:25.678Z,10.11
2022-10-02T05:08:18.326Z,10.13
2022-10-02T05:10:59.547Z,10.06
2022-10-02T05:13:48.148Z,10.00
2022-10-02T05:16:34.455Z,9.93
2022-10-02T05:19:33.115Z,9.86
2022-10-02T05:22:20.251Z,9.80
2022-10-02T05:24:59.628Z,9.76
2022-10-02T05:27:58.188Z,9.71
2022-10-02T05:30:29.427Z,9.66
2022-10-02T05:33:36.573Z,9.64
2022-10-02T05:36:31.566Z,9.58
2022-10-02T05:39:09.109Z,9.55
2022-10-02T05:41:52.543Z,9.50
2022-10-02T05:44:26.014Z,9.47
2022-10-02T05:47:02.190Z,9.41
2022-10-02T05:49:36.812Z,9.35
2022-10-02T05:52:14.497Z,9.34
2022-10-02T05:54:50.326Z,9.38
2022-10-02T05:57:27.736Z,9.41
2022-10-02T06:00:07.193Z,9.40
2022-10-02T06:02:43.722Z,9.40
2022-10-02T06:05:22.900Z,9.40
2022-10-02T06:07:56.263Z,9.39
2022-10-02T06:10:31.791Z,9.34
2022-10-02T06:13:08.825Z,9.36
2022-10-02T06:15:47.209Z,9.38
2022-10-02T06:18:22.046Z,9.37
2022-10-02T06:20:55.669Z,9.39
2022-10-02T06:23:28.310Z,9.38
2022-10-02T06:26:02.855Z,9.44
2022-10-02T06:28:37.058Z,9.47
2022-10-02T06:31:14.938Z,9.48
2022-10-02T06:33:44.054Z,9.54
2022-10-02T06:36:41.396Z,9.55
2022-10-02T06:39:35.904Z,9.58
2022-10-02T06:42:23.085Z,9.60
2022-10-02T06:45:06.722Z,9.63
2022-10-02T06:47:49.937Z,9.67
2022-10-02T06:50:32.873Z,9.72
2022-10-02T06:53:10.693Z,9.73
2022-10-02T06:55:49.860Z,9.72
2022-10-02T06:58:40.549Z,9.75
2022-10-02T07:01:16.150Z,9.82
2022-10-02T07:04:12.917Z,9.82
2022-10-02T07:07:01.368Z,9.82
2022-10-02T07:09:55.590Z,9.88
2022-10-02T07:12:39.415Z,9.90
2022-10-02T07:15:29.077Z,9.88
2022-10-02T07:18:09.596Z,9.85
2022-10-02T07:20:52.484Z,9.85
2022-10-02T07:23:43.407Z,9.80
2022-10-02T07:26:36.904Z,9.83
2022-10-02T07:29:22.630Z,9.82
2022-10-02T07:32:15.483Z,9.77
2022-10-02T07:34:57.803Z,9.80
2022-10-02T07:37:33.701Z,9.85
2022-10-02T07:40:21.802Z,9.97
2022-10-02T07:43:34.871Z,10.06
2022-10-02T07:46:18.821Z,10.16
2022-10-02T07:49:09.783Z,10.35
2022-10-02T07:51:50.335Z,10.39
2022-10-02T07:54:52.989Z,10.42
2022-10-02T07:57:35.504Z,10.53
2022-10-02T08:00:08.946Z,10.59
2022-10-02T08:02:41.779Z,10.64
2022-10-02T08:05:19.776Z,10.60
2022-10-02T08:07:51.053Z,10.60
2022-10-02T08:10:26.131Z,10.58
2022-10-02T08:13:04.914Z,10.65
2022-10-02T08:15:39.169Z,10.77
2022-10-02T08:18:33.690Z,10.90
2022-10-02T08:21:07.333Z,11.01
2022-10-02T08:23:44.186Z,11.10
2022-10-02T08:26:20.569Z,11.16
2022-10-02T08:28:57.051Z,11.30
2022-10-02T08:31:27.768Z,11.29
2022-10-02T08:33:58.249Z,11.34
2022-10-02T08:36:50.797Z,11.44
2022-10-02T08:39:50.784Z,11.33
2022-10-02T08:42:58.805Z,11.34
2022-10-02T08:46:09.170Z,11.22
2022-10-02T08:49:02.164Z,11.18
2022-10-02T08:52:10.417Z,11.30
2022-10-02T08:55:07.188Z,11.57
2022-10-02T08:58:04.617Z,12.14
2022-10-02T09:00:41.959Z,12.42
2022-10-02T09:03:56.292Z,12.64
2022-10-02T09:07:00.485Z,12.82
2022-10-02T09:10:15.279Z,12.82
2022-10-02T09:13:17.897Z,13.10
2022-10-02T09:15:55.372Z,13.18
2022-10-02T09:18:59.347Z,13.21
2022-10-02T09:22:17.978Z,13.58
2022-10-02T09:25:17.577Z,13.72
2022-10-02T09:28:18.731Z,13.71
2022-10-02T09:31:41.529Z,13.51
2022-10-02T09:34:48.458Z,13.45
2022-10-02T09:37:44.265Z,13.38
2022-10-02T09:40:56.823Z,13.39
2022-10-02T09:44:06.685Z,13.50
2022-10-02T09:47:14.219Z,13.35
2022-10-02T09:50:16.560Z,13.36
2022-10-02T09:53:19.113Z,13.50
2022-10-02T09:56:36.271Z,14.12
2022-10-02T10:00:00.468Z,14.99
2022-10-02T10:03:10.200Z,14.71
2022-10-02T10:06:00.127Z,14.50
2022-10-02T10:08:56.681Z,14.32
2022-10-02T10:11:58.322Z,14.25
2022-10-02T10:15:01.891Z,14.11
2022-10-02T10:18:01.098Z,14.07
2022-10-02T10:21:08.995Z,14.47
2022-10-02T10:24:24.452Z,14.53
2022-10-02T10:27:30.909Z,14.65
2022-10-02T10:30:28.795Z,14.61
2022-10-02T10:33:34.945Z,14.49
2022-10-02T10:36:58.206Z,14.53
2022-10-02T10:39:58.479Z,14.88
2022-10-02T10:43:16.703Z,15.01
2022-10-02T10:45:56.647Z,14.97
2022-10-02T10:48:37.966Z,15.01
2022-10-02T10:51:31.113Z,15.25
2022-10-02T10:54:48.738Z,15.24
2022-10-02T10:57:35.253Z,15.61
2022-10-02T11:00:27.951Z,15.67
2022-10-02T11:03:27.109Z,16.04
2022-10-02T11:06:22.576Z,16.31
2022-10-02T11:09:15.373Z,16.63
2022-10-02T11:12:05.259Z,16.59
2022-10-02T11:14:54.048Z,16.93
2022-10-02T11:17:41.899Z,17.29
2022-10-02T11:20:35.593Z,16.93
2022-10-02T11:23:39.369Z,16.86
2022-10-02T11:26:27.849Z,16.76
2022-10-02T11:29:22.304Z,16.76
2022-10-02T11:32:12.940Z,16.87
2022-10-02T11:34:59.621Z,17.34
2022-10-02T11:37:47.500Z,17.17
2022-10-02T11:40:35.708Z,17.16
2022-10-02T11:43:16.692Z,16.54
2022-10-02T11:46:22.159Z,16.89
2022-10-02T11:49:25.723Z,17.71
2022-10-02T11:52:26.676Z,18.01
2022-10-02T11:55:17.090Z,17.32
2022-10-02T11:57:57.709Z,16.85
2022-10-02T12:01:06.061Z,16.61
2022-10-02T12:03:46.836Z,16.56
2022-10-02T12:06:27.772Z,16.67
2022-10-02T12:09:04.338Z,16.85
2022-10-02T12:11:42.319Z,16.71
2022-10-02T12:14:29.791Z,16.46
2022-10-02T12:17:10.812Z,16.11
2022-10-02T12:20:12.142Z,15.97
2022-10-02T12:23:08.655Z,15.94
2022-10-02T12:26:02.603Z,16.06
2022-10-02T12:28:39.180Z,16.17
2022-10-02T12:31:20.936Z,16.21
2022-10-02T12:34:01.474Z,16.29
2022-10-02T12:36:46.886Z,16.35
2022-10-02T12:39:43.847Z,16.11
2022-10-02T12:42:34.897Z,16.16
2022-10-02T12:45:34.539Z,16.28
2022-10-02T12:48:35.769Z,16.18
2022-10-02T12:51:36.937Z,16.12
2022-10-02T12:54:52.820Z,16.64
2022-10-02T12:57:59.006Z,17.34
2022-10-02T13:00:45.358Z,17.20
2022-10-02T13:04:02.949Z,16.90
2022-10-02T13:07:06.161Z,16.82
2022-10-02T13:09:46.496Z,16.97
2022-10-02T13:12:37.838Z,16.85
2022-10-02T13:15:47.895Z,17.66
2022-10-02T13:18:48.578Z,18.21
2022-10-02T13:21:37.163Z,18.53
2022-10-02T13:24:27.718Z,17.83
2022-10-02T13:27:06.557Z,17.22
2022-10-02T13:29:54.916Z,17.06
2022-10-02T13:32:47.305Z,17.01
2022-10-02T13:35:46.733Z,16.97
2022-10-02T13:38:44.503Z,17.28
2022-10-02T13:41:29.544Z,17.46
2022-10-02T13:44:08.385Z,17.65
2022-10-02T13:47:18.241Z,17.70
2022-10-02T13:50:02.992Z,17.64
2022-10-02T13:52:48.614Z,17.30
2022-10-02T13:55:29.241Z,17.10
2022-10-02T13:58:13.792Z,17.04
2022-10-02T14:01:06.142Z,16.96
2022-10-02T14:03:47.942Z,16.66
2022-10-02T14:06:26.711Z,16.43
2022-10-02T14:09:13.291Z,16.33
2022-10-02T14:11:59.292Z,16.29
2022-10-02T14:14:40.535Z,16.27
2022-10-02T14:17:24.134Z,16.35
2022-10-02T14:20:22.030Z,16.38
2022-10-02T14:23:03.718Z,16.38
2022-10-02T14:25:44.195Z,16.12
2022-10-02T14:28:37.462Z,16.06
2022-10-02T14:31:24.956Z,16.00
2022-10-02T14:34:26.718Z,15.93
2022-10-02T14:37:04.172Z,16.05
2022-10-02T14:39:39.727Z,16.15
2022-10-02T14:42:24.046Z,16.00
2022-10-02T14:45:33.327Z,15.92
2022-10-02T14:48:14.878Z,15.95
2022-10-02T14:51:01.228Z,15.94
2022-10-02T14:54:00.390Z,15.90
2022-10-02T14:56:49.531Z,15.74
2022-10-02T14:59:44.135Z,15.74
2022-10-02T15:02:46.881Z,15.88
2022-10-02T15:05:36.455Z,15.94
2022-10-02T15:08:14.524Z,15.91
2022-10-02T15:10:46.348Z,15.94
2022-10-02T15:13:31.891Z,16.01
2022-10-02T15:16:31.337Z,16.14
2022-10-02T15:19:12.851Z,16.18
2022-10-02T15:21:48.726Z,16.24
2022-10-02T15:24:34.711Z,16.31
2022-10-02T15:27:14.862Z,16.27
2022-10-02T15:30:06.928Z,16.10
2022-10-02T15:32:57.803Z,15.89
2022-10-02T15:35:51.975Z,15.71
2022-10-02T15:38:47.885Z,15.69
2022-10-02T15:41:35.173Z,15.63
2022-10-02T15:44:12.667Z,15.64
2022-10-02T15:46:54.241Z,15.71
2022-10-02T15:49:38.040Z,15.70
2022-10-02T15:52:18.917Z,15.73
2022-10-02T15:55:02.169Z,15.77
2022-10-02T15:57:52.474Z,15.73
2022-10-02T16:00:23.741Z,15.80
2022-10-02T16:03:04.247Z,15.97
2022-10-02T16:05:56.642Z,15.98
2022-10-02T16:09:14.217Z,16.01
2022-10-02T16:12:00.106Z,15.95
2022-10-02T16:14:42.330Z,15.90
2022-10-02T16:17:30.599Z,15.81
2022-10-02T16:20:17.564Z,15.60
2022-10-02T16:23:00.514Z,15.55
2022-10-02T16:25:59.996Z,15.50
2022-10-02T16:28:44.690Z,15.49
2022-10-02T16:31:33.739Z,15.49
2022-10-02T16:34:19.142Z,15.45
2022-10-02T16:36:53.543Z,15.46
2022-10-02T16:39:43.506Z,15.38
2022-10-02T16:42:21.912Z,15.33
2022-10-02T16:45:16.165Z,15.29
2022-10-02T16:47:50.065Z,15.25
2022-10-02T16:50:25.431Z,15.26
2022-10-02T16:53:00.411Z,15.21
2022-10-02T16:55:35.890Z,15.22
2022-10-02T16:58:19.243Z,15.20
2022-10-02T17:00:58.969Z,15.15
2022-10-02T17:03:36.004Z,15.10
2022-10-02T17:06:18.361Z,15.07
2022-10-02T17:08:54.343Z,15.09
2022-10-02T17:11:28.250Z,15.04
2022-10-02T17:14:11.732Z,15.03
2022-10-02T17:16:47.955Z,14.97
2022-10-02T17:19:26.981Z,14.93
2022-10-02T17:22:01.405Z,14.92
2022-10-02T17:24:42.543Z,14.91
2022-10-02T17:27:18.086Z,14.90
2022-10-02T17:29:55.440Z,14.88
2022-10-02T17:32:48.575Z,14.87
2022-10-02T17:35:26.357Z,14.82
2022-10-02T17:38:13.074Z,14.83
2022-10-02T17:40:51.886Z,14.80
2022-10-02T17:43:31.444Z,14.76
2022-10-02T17:46:21.755Z,14.73
2022-10-02T17:48:59.234Z,14.73
2022-10-02T17:51:52.215Z,14.71
2022-10-02T17:55:00.949Z,14.67
2022-10-02T17:57:45.509Z,14.64
2022-10-02T18:00:21.554Z,14.62
2022-10-02T18:03:15.319Z,14.63
2022-10-02T18:05:59.098Z,14.59
2022-10-02T18:08:47.302Z,14.60
2022-10-02T18:11:40.711Z,14.62
2022-10-02T18:14:14.966Z,14.56
2022-10-02T18:16:57.391Z,14.54
2022-10-02T18:19:34.099Z,14.47
2022-10-02T18:22:24.266Z,14.44
2022-10-02T18:25:21.853Z,14.40
2022-10-02T18:28:04.813Z,14.38
2022-10-02T18:30:44.519Z,14.37
2022-10-02T18:33:34.787Z,14.38
2022-10-02T18:36:19.457Z,14.41
2022-10-02T18:39:01.879Z,14.45
2022-10-02T18:41:51.750Z,14.48
2022-10-02T18:44:39.579Z,14.44
2022-10-02T18:47:19.154Z,14.42
2022-10-02T18:50:01.887Z,14.44
2022-10-02T18:53:13.137Z,14.47
2022-10-02T18:56:06.416Z,14.49
2022-10-02T18:58:58.055Z,14.51
2022-10-02T19:01:57.539Z,14.48
2022-10-02T19:05:00.311Z,14.43
2022-10-02T19:07:38.957Z,14.38
2022-10-02T19:10:29.881Z,14.39
2022-10-02T19:13:04.805Z,14.43
2022-10-02T19:15:35.047Z,14.40
2022-10-02T19:18:05.280Z,14.38
2022-10-02T19:20:44.226Z,14.36
2022-10-02T19:23:22.931Z,14.33
2022-10-02T19:25:54.078Z,14.26
2022-10-02T19:28:28.469Z,14.20
2022-10-02T19:31:01.115Z,14.22
2022-10-02T19:33:45.275Z,14.22
2022-10-02T19:36:21.631Z,14.24
2022-10-02T19:38:57.652Z,14.11
2022-10-02T19:41:26.812Z,14.16
2022-10-02T19:44:03.253Z,14.20
2022-10-02T19:46:39.638Z,14.17
2022-10-02T19:49:10.068Z,14.21
2022-10-02T19:51:47.810Z,14.21
2022-10-02T19:54:21.851Z,14.20
2022-10-02T19:56:56.625Z,14.20
2022-10-02T19:59:32.946Z,14.22
2022-10-02T20:02:05.279Z,14.20
2022-10-02T20:04:36.985Z,14.16
2022-10-02T20:07:07.329Z,14.17
2022-10-02T20:09:44.663Z,14.18
2022-10-02T20:12:18.082Z,14.18
2022-10-02T20:14:55.528Z,14.16
2022-10-02T20:17:23.544Z,14.23
2022-10-02T20:19:55.740Z,14.13
2022-10-02T20:22:34.564Z,14.10
2022-10-02T20:25:10.114Z,14.10
2022-10-02T20:27:45.927Z,14.13
2022-10-02T20:30:19.452Z,14.13
2022-10-02T20:32:52.606Z,14.15
2022-10-02T20:35:29.359Z,14.14
2022-10-02T20:38:00.451Z,14.15
2022-10-02T20:40:36.774Z,14.15
2022-10-02T20:43:10.484Z,14.15
2022-10-02T20:45:47.247Z,14.14
2022-10-02T20:49:08.126Z,14.08
2022-10-02T20:52:10.489Z,14.05
2022-10-02T20:54:54.482Z,14.05
2022-10-02T20:58:06.506Z,14.06
2022-10-02T21:01:02.812Z,14.09
2022-10-02T21:06:54.294Z,14.09
2022-10-02T21:09:55.190Z,14.11
2022-10-02T21:13:06.883Z,14.07
2022-10-02T21:15:56.878Z,14.03
2022-10-02T21:19:03.988Z,14.03
2022-10-02T21:22:17.482Z,14.02
2022-10-02T21:25:23.269Z,13.96
2022-10-02T21:28:24.515Z,14.00
2022-10-02T21:31:12.085Z,13.95
2022-10-02T21:33:42.386Z,14.00
2022-10-02T21:36:22.724Z,13.97
2022-10-02T21:39:16.467Z,13.97
2022-10-02T21:42:17.783Z,13.97
2022-10-02T21:45:16.839Z,13.96
2022-10-02T21:48:39.902Z,13.95
2022-10-02T21:51:41.609Z,13.96
2022-10-02T21:54:54.279Z,13.98
2022-10-02T21:57:52.120Z,13.98
2022-10-02T22:00:23.588Z,13.95
2022-10-02T22:03:48.957Z,13.91
2022-10-02T22:06:39.089Z,13.89
2022-10-02T22:09:27.111Z,13.88
2022-10-02T22:12:13.678Z,13.86
2022-10-02T22:14:48.173Z,13.86
2022-10-02T22:17:28.184Z,13.89
2022-10-02T22:20:36.754Z,13.87
2022-10-02T22:23:30.189Z,13.88
2022-10-02T22:26:13.869Z,13.85
2022-10-02T22:28:46.644Z,13.79
2022-10-02T22:31:41.763Z,13.78
2022-10-02T22:34:29.414Z,13.79
2022-10-02T22:37:20.067Z,13.80
2022-10-02T22:39:55.476Z,13.76
2022-10-02T22:42:30.526Z,13.76
2022-10-02T22:45:04.870Z,13.77
2022-10-02T22:47:41.843Z,13.78
2022-10-02T22:50:20.186Z,13.74
2022-10-02T22:52:56.504Z,13.68
2022-10-02T22:55:29.456Z,13.61
2022-10-02T22:58:05.370Z,13.60
2022-10-02T23:00:51.460Z,13.61
2022-10-02T23:03:26.455Z,13.59
2022-10-02T23:05:58.826Z,13.60
2022-10-02T23:08:34.956Z,13.59
2022-10-02T23:11:12.714Z,13.59
2022-10-02T23:13:46.305Z,13.61
2022-10-02T23:16:22.659Z,13.64
2022-10-02T23:18:58.844Z,13.60
2022-10-02T23:21:40.029Z,13.59
2022-10-02T23:24:26.203Z,13.56
2022-10-02T23:27:04.785Z,13.50
2022-10-02T23:29:50.809Z,13.47
2022-10-02T23:32:28.344Z,13.48
2022-10-02T23:35:06.944Z,13.52
2022-10-02T23:37:47.153Z,13.49
2022-10-02T23:40:47.467Z,13.44
2022-10-02T23:43:24.073Z,13.40
2022-10-02T23:46:00.622Z,13.38
2022-10-02T23:48:31.640Z,13.36
2022-10-02T23:51:43.511Z,13.38
2022-10-02T23:54:45.405Z,13.35
2022-10-02T23:57:45.961Z,13.36
